« Back
NWS Peachtree City, Ga » Text Product » ATL Terminal Aerodrome Forecast


Printer-friendly Version
Current Version              Previous Versions:   1  2  3  4  5  6  7  8  9  

Terminal Aerodrome Forecast

464
FTUS42 KFFC 190258 AAB
TAFATL
TAF AMD
KATL 190258Z 1903/2006 13006KT P6SM SCT006 BKN025
     FM190500 13005KT 6SM -RA OVC015
     FM190900 13006KT 4SM -SHRA BR OVC009 PROB30 1912/1915 4SM -TSRA
      BKN010CB
     FM191500 19010G18KT 4SM -TSRA BKN010CB OVC025
     FM191700 21012G20KT P6SM BKN015
     FM192100 22010G16KT P6SM BKN030
     FM200000 23007KT P6SM BKN025=

USA.gov is the U.S. government's official web portal to all federal, state and local government web resources and services.